Terminal Aerodrome Forecast
Issued by NWS North Platte, NE

Home | Current Version | Previous Version | Graphics & Text | Print | Product List | Glossary On
Versions: 1 2 3 4 5 6 7 8 9 10 11 12 13 14 15 16 17
000
FTUS43 KLBF 221344 AAA
TAFVTN
TAF AMD
KVTN 221344Z 2214/2312 02011G18KT P6SM BKN027
     FM221500 01012KT P6SM SCT050
     FM222000 35012G18KT P6SM BKN120
     FM230100 35009KT P6SM BKN150=

USA.gov is the U.S. government's official web portal to all federal, state and local government web resources and services.